Time;durP1;ratioP1;P1;durP2;ratioP2;P2;SDS_P1;SDS_P2;PMS_P1;PMS_P2;Temp;Humidity;BMP_temperature;BMP_pressure;BME280_temperature;BME280_humidity;BME280_pressure;Samples;Min_cycle;Max_cycle;Signal;HPM_P1;HPM_P2
2022/12/24 00:03:15;;;;;;;40.00;25.70;;;;;;;6.48;87.77;98714.17;207209;1296;141999;-70
2022/12/24 00:08:20;;;;;;;63.90;36.00;;;;;;;6.49;87.44;98708.79;210071;1297;142756;-69
2022/12/24 00:13:24;;;;;;;64.70;38.20;;;;;;;6.38;87.57;98705.94;210394;1289;141287;-72
2022/12/24 00:18:28;;;;;;;55.50;32.10;;;;;;;6.40;87.60;98709.73;207650;1298;141837;-65
2022/12/24 00:23:34;;;;;;;75.10;42.90;;;;;;;6.45;87.83;98712.83;208014;1298;141858;-69
2022/12/24 00:28:38;;;;;;;81.40;41.70;;;;;;;6.49;88.03;98709.52;207409;1285;140772;-67
2022/12/24 00:33:45;;;;;;;60.50;35.40;;;;;;;6.50;87.97;98710.77;208612;1298;140281;-65
2022/12/24 00:38:51;;;;;;;71.00;37.70;;;;;;;6.55;88.31;98708.71;208078;1297;163620;-67
2022/12/24 00:44:05;;;;;;;65.00;32.60;;;;;;;6.61;88.54;98705.66;207732;1295;141290;-67
2022/12/24 00:49:11;;;;;;;52.20;29.90;;;;;;;6.60;88.47;98707.64;207710;1287;142274;-65
2022/12/24 00:54:16;;;;;;;44.30;27.10;;;;;;;6.58;88.15;98705.19;207846;1296;142251;-66
2022/12/24 00:59:24;;;;;;;53.90;29.10;;;;;;;6.62;88.19;98707.64;208338;1287;141231;-64
2022/12/24 01:09:58;;;;;;;49.10;29.20;;;;;;;6.56;88.57;98708.57;208061;1289;141355;-65
2022/12/24 01:15:04;;;;;;;52.80;30.40;;;;;;;6.57;88.16;98705.04;208568;1301;140762;-64
2022/12/24 01:20:17;;;;;;;48.50;28.30;;;;;;;6.56;88.18;98706.29;208338;1297;142800;-67
2022/12/24 01:25:25;;;;;;;45.40;28.80;;;;;;;6.56;88.41;98704.39;208075;1293;139836;-64
2022/12/24 01:30:31;;;;;;;55.80;30.00;;;;;;;6.59;88.42;98704.08;208598;1288;140699;-63
2022/12/24 01:35:41;;;;;;;60.10;36.00;;;;;;;6.60;88.26;98701.61;208689;1298;144450;-65
2022/12/24 01:46:23;;;;;;;63.20;34.50;;;;;;;6.63;88.22;98696.28;209957;1300;139915;-68
2022/12/24 01:51:38;;;;;;;57.50;33.70;;;;;;;6.67;88.30;98695.98;209610;1302;140704;-69
2022/12/24 01:56:53;;;;;;;57.90;34.50;;;;;;;6.66;87.90;98693.64;210239;1301;139781;-66
2022/12/24 02:02:00;;;;;;;62.00;34.50;;;;;;;6.67;88.51;98698.33;210196;1298;139430;-66
2022/12/24 02:07:04;;;;;;;61.90;36.10;;;;;;;6.75;88.10;98696.12;208224;1297;141135;-65
2022/12/24 02:12:10;;;;;;;58.90;38.40;;;;;;;6.76;88.05;98699.97;208501;1288;142115;-65
2022/12/24 02:17:23;;;;;;;59.20;31.80;;;;;;;6.73;87.93;98696.46;208503;1285;140006;-64
2022/12/24 02:22:59;;;;;;;49.00;28.10;;;;;;;6.66;87.55;98694.65;209232;1298;140299;-68
2022/12/24 02:28:22;;;;;;;51.20;30.10;;;;;;;6.58;87.69;98688.81;208505;1302;140610;-63
2022/12/24 02:33:37;;;;;;;54.70;29.60;;;;;;;6.58;88.08;98688.54;209259;1295;140366;-68
2022/12/24 02:39:10;;;;;;;50.70;25.60;;;;;;;6.59;88.49;98687.78;207520;1287;139804;-65
2022/12/24 02:44:17;;;;;;;54.90;29.40;;;;;;;6.65;88.46;98684.68;207790;1299;141879;-66
2022/12/24 02:49:21;;;;;;;43.90;26.20;;;;;;;6.65;88.53;98684.73;208180;1296;139720;-69
2022/12/24 02:54:26;;;;;;;36.10;21.90;;;;;;;6.64;88.62;98689.15;208067;1295;139406;-65
2022/12/24 02:59:56;;;;;;;49.10;25.40;;;;;;;6.66;88.48;98689.40;208055;1285;141740;-67
2022/12/24 03:05:25;;;;;;;42.30;24.90;;;;;;;6.66;88.59;98689.72;207609;1296;140027;-63
2022/12/24 03:10:56;;;;;;;39.60;25.20;;;;;;;6.64;88.61;98689.48;208541;1287;141524;-64
2022/12/24 03:16:05;;;;;;;39.10;23.60;;;;;;;6.64;88.27;98689.89;208474;1298;140801;-64
2022/12/24 03:21:23;;;;;;;38.20;23.70;;;;;;;6.65;88.01;98688.96;207825;1298;140630;-65
2022/12/24 03:26:28;;;;;;;;;;;;;;;6.63;88.33;98687.82;209075;1291;139796;-64
2022/12/24 03:31:44;;;;;;;45.40;26.30;;;;;;;6.58;88.45;98694.91;208782;1296;126380;-67
2022/12/24 03:36:50;;;;;;;43.20;27.40;;;;;;;6.63;88.25;98690.09;208891;1294;140197;-68
2022/12/24 03:41:56;;;;;;;48.10;26.80;;;;;;;6.71;88.67;98688.02;207221;1300;140136;-67
2022/12/24 03:47:01;;;;;;;40.70;24.00;;;;;;;6.72;88.27;98686.39;208108;1289;141634;-70
2022/12/24 03:52:06;;;;;;;37.10;23.10;;;;;;;6.71;88.50;98691.05;208779;1294;141674;-68
2022/12/24 03:57:10;;;;;;;37.80;23.50;;;;;;;6.70;88.18;98693.92;210090;1294;141895;-69
2022/12/24 04:02:14;;;;;;;39.20;25.00;;;;;;;6.67;88.27;98684.45;210126;1295;140941;-69
2022/12/24 04:07:18;;;;;;;36.00;19.20;;;;;;;6.63;87.91;98689.29;209387;1294;141638;-67
2022/12/24 04:12:22;;;;;;;39.10;23.80;;;;;;;6.68;88.30;98687.07;210297;1300;141453;-68
2022/12/24 04:17:27;;;;;;;37.70;20.80;;;;;;;6.72;88.02;98687.77;209643;1295;140900;-66
2022/12/24 04:22:32;;;;;;;34.20;20.60;;;;;;;6.76;88.24;98690.64;207968;1297;143607;-67
2022/12/24 04:27:37;;;;;;;33.60;20.80;;;;;;;6.79;87.95;98690.95;208721;1290;141263;-66
2022/12/24 04:32:42;;;;;;;47.70;36.80;;;;;;;6.77;87.83;98683.13;208203;1293;142229;-69
2022/12/24 04:37:47;;;;;;;33.10;22.20;;;;;;;6.67;87.87;98683.66;209232;1295;140120;-67
2022/12/24 04:42:52;;;;;;;25.80;16.50;;;;;;;6.54;87.57;98682.20;208950;1294;140226;-67
2022/12/24 04:47:56;;;;;;;23.10;16.20;;;;;;;6.48;87.55;98684.68;208073;1290;143268;-67
2022/12/24 04:53:00;;;;;;;30.30;16.80;;;;;;;6.51;88.14;98683.45;208060;1293;142004;-65
2022/12/24 04:58:06;;;;;;;24.10;14.90;;;;;;;6.45;88.24;98687.06;208399;1287;139539;-67
2022/12/24 05:03:10;;;;;;;20.60;15.10;;;;;;;6.42;88.18;98686.67;207872;1296;140709;-67
2022/12/24 05:08:15;;;;;;;27.00;17.70;;;;;;;6.43;88.28;98690.51;207646;1287;140603;-67
2022/12/24 05:13:19;;;;;;;22.80;15.40;;;;;;;6.41;87.95;98691.79;207576;1290;140003;-67
2022/12/24 05:18:23;;;;;;;27.00;15.20;;;;;;;6.33;87.97;98692.60;208021;1297;140755;-68
2022/12/24 05:29:11;;;;;;;24.20;18.50;;;;;;;6.28;88.56;98697.41;207129;1294;141350;-67
2022/12/24 05:34:16;;;;;;;31.30;23.50;;;;;;;6.28;88.49;98705.30;209404;1294;140627;-67
2022/12/24 05:39:19;;;;;;;27.90;17.20;;;;;;;6.32;88.52;98705.33;208123;1295;140906;-67
2022/12/24 05:44:23;;;;;;;23.50;13.20;;;;;;;6.34;88.68;98706.75;208390;1295;142292;-67
2022/12/24 05:49:27;;;;;;;20.00;13.40;;;;;;;6.32;88.45;98705.52;209450;1302;140496;-67
2022/12/24 05:54:31;;;;;;;18.00;11.70;;;;;;;6.25;88.06;98706.02;208162;1294;140346;-67
2022/12/24 05:59:34;;;;;;;20.60;12.80;;;;;;;6.12;88.19;98711.23;210491;1290;140180;-66
2022/12/24 06:04:38;;;;;;;20.90;11.30;;;;;;;6.05;88.03;98714.52;210398;1295;140318;-67
2022/12/24 06:09:42;;;;;;;18.60;11.80;;;;;;;6.09;88.29;98720.07;208667;1296;141867;-66
2022/12/24 06:14:46;;;;;;;18.60;11.80;;;;;;;6.13;88.10;98723.16;208236;1290;140389;-67
2022/12/24 06:19:51;;;;;;;23.50;13.10;;;;;;;6.07;88.56;98724.63;209494;1295;139753;-67
2022/12/24 06:24:55;;;;;;;23.80;13.90;;;;;;;6.02;88.38;98717.05;208269;1288;139073;-66
2022/12/24 06:29:59;;;;;;;19.90;10.70;;;;;;;6.05;88.66;98722.83;207507;1295;140946;-66
2022/12/24 06:35:05;;;;;;;22.70;13.40;;;;;;;6.05;88.21;98723.89;208123;1288;142722;-68
2022/12/24 06:40:09;;;;;;;24.80;12.90;;;;;;;6.02;88.26;98729.84;208418;1300;141251;-66
2022/12/24 06:45:15;;;;;;;17.20;11.70;;;;;;;5.95;88.28;98741.99;207801;1281;139523;-66
2022/12/24 06:50:20;;;;;;;13.30;9.00;;;;;;;5.91;87.94;98750.48;208089;1295;583396;-68
2022/12/24 06:55:25;;;;;;;18.50;10.10;;;;;;;5.88;88.25;98755.14;208123;1290;209620;-66
2022/12/24 07:00:30;;;;;;;14.70;10.80;;;;;;;5.81;88.43;98761.15;207969;1295;139625;-67
2022/12/24 07:05:35;;;;;;;18.30;10.20;;;;;;;5.77;88.43;98763.77;207955;1295;140078;-67
2022/12/24 07:10:40;;;;;;;14.90;10.10;;;;;;;5.74;88.32;98767.66;207815;1302;140975;-68
2022/12/24 07:15:45;;;;;;;15.70;8.60;;;;;;;5.70;88.41;98776.30;207927;1287;140784;-66
2022/12/24 07:20:50;;;;;;;17.10;9.90;;;;;;;5.59;88.28;98780.92;208286;1294;140123;-67
2022/12/24 07:25:54;;;;;;;21.10;10.40;;;;;;;5.54;88.99;98792.51;207884;1290;139663;-68
2022/12/24 07:30:59;;;;;;;16.10;10.00;;;;;;;5.56;88.71;98805.04;207935;1281;141454;-68
2022/12/24 07:36:06;;;;;;;22.80;12.80;;;;;;;5.58;88.59;98818.23;208552;1297;140988;-66
2022/12/24 07:41:12;;;;;;;17.80;10.40;;;;;;;5.62;89.03;98826.27;208291;1288;142131;-67
2022/12/24 07:46:16;;;;;;;19.00;11.20;;;;;;;5.65;88.50;98827.66;209398;1280;142861;-68
2022/12/24 07:51:21;;;;;;;18.60;11.30;;;;;;;5.71;89.16;98836.23;210286;1295;141954;-68
2022/12/24 07:56:27;;;;;;;17.40;10.50;;;;;;;5.73;88.49;98842.20;209208;1281;140165;-68
2022/12/24 08:01:32;;;;;;;16.00;10.10;;;;;;;5.69;88.47;98850.71;209231;1295;139401;-69
2022/12/24 08:06:37;;;;;;;14.30;8.50;;;;;;;5.70;88.42;98857.25;210206;1295;141149;-69
2022/12/24 08:11:41;;;;;;;17.90;10.40;;;;;;;5.73;89.01;98859.08;209760;1291;140810;-68
2022/12/24 08:16:55;;;;;;;15.10;9.40;;;;;;;5.69;88.21;98858.35;208423;1288;243277;-68
2022/12/24 08:21:59;;;;;;;14.70;9.00;;;;;;;5.64;88.30;98860.37;208701;1281;142094;-68
2022/12/24 08:27:05;;;;;;;14.70;10.30;;;;;;;5.61;88.31;98869.68;208707;1288;139964;-68
2022/12/24 08:32:08;;;;;;;16.10;8.80;;;;;;;5.58;88.13;98875.21;207556;1288;140074;-69
2022/12/24 08:37:13;;;;;;;12.10;7.80;;;;;;;5.59;88.75;98880.16;208200;1287;140876;-68
2022/12/24 08:42:19;;;;;;;14.50;8.30;;;;;;;5.63;88.77;98883.86;208541;1297;140264;-68
2022/12/24 08:47:23;;;;;;;14.70;8.20;;;;;;;5.63;88.74;98889.35;208896;1291;139798;-68
2022/12/24 08:52:28;;;;;;;12.60;7.10;;;;;;;5.65;88.63;98898.52;207916;1301;139861;-68
2022/12/24 08:57:36;;;;;;;11.20;8.40;;;;;;;5.68;88.70;98910.92;208155;1289;140655;-67
2022/12/24 09:02:40;;;;;;;11.50;7.70;;;;;;;5.68;88.45;98916.34;207609;1295;140523;-67
2022/12/24 09:07:45;;;;;;;12.40;8.90;;;;;;;5.70;88.48;98928.52;207598;1287;153034;-68
2022/12/24 09:12:50;;;;;;;10.00;7.00;;;;;;;5.70;88.78;98930.84;207269;1294;140262;-68
2022/12/24 09:17:55;;;;;;;9.70;7.40;;;;;;;5.69;88.47;98937.07;207571;1288;140861;-68
2022/12/24 09:22:59;;;;;;;16.00;9.20;;;;;;;5.71;88.66;98944.08;208386;1295;140901;-67
2022/12/24 09:28:03;;;;;;;12.70;9.10;;;;;;;5.76;88.85;98947.86;208002;1288;140699;-67
2022/12/24 09:33:07;;;;;;;17.70;10.10;;;;;;;5.77;88.62;98960.83;207336;1288;140501;-69
2022/12/24 09:38:11;;;;;;;13.60;8.70;;;;;;;5.78;89.07;98966.52;209964;1288;141338;-68
2022/12/24 09:43:19;;;;;;;14.00;9.90;;;;;;;5.76;88.78;98966.09;208977;1288;140304;-67
2022/12/24 09:48:29;;;;;;;14.50;10.80;;;;;;;5.74;88.68;98966.10;210020;1288;140552;-67
2022/12/24 09:53:50;;;;;;;15.70;9.60;;;;;;;5.75;88.75;98974.73;210328;1294;140603;-67
2022/12/24 09:59:00;;;;;;;14.40;10.80;;;;;;;5.67;88.67;98986.32;210485;1288;140832;-68
2022/12/24 10:04:11;;;;;;;17.20;10.50;;;;;;;5.69;88.66;98986.78;210416;1295;141204;-67
2022/12/24 10:09:47;;;;;;;17.40;12.80;;;;;;;5.67;88.69;98995.31;209639;1287;140085;-68
2022/12/24 10:15:28;;;;;;;21.80;13.40;;;;;;;5.67;88.70;99006.29;209553;1291;140246;-68
2022/12/24 10:20:52;;;;;;;16.80;12.50;;;;;;;5.69;88.79;99008.31;207976;1297;139858;-67
2022/12/24 10:26:26;;;;;;;20.80;12.70;;;;;;;5.70;88.67;99016.27;208274;1288;142817;-67
2022/12/24 10:31:36;;;;;;;21.50;13.10;;;;;;;5.67;88.59;99026.83;208373;1293;226962;-67
2022/12/24 10:36:42;;;;;;;23.10;14.10;;;;;;;5.62;88.61;99033.15;208955;1294;142347;-67
2022/12/24 10:41:50;;;;;;;21.50;12.40;;;;;;;5.64;88.89;99043.54;208243;1284;141775;-68
2022/12/24 10:46:56;;;;;;;22.20;14.90;;;;;;;5.67;88.78;99049.30;207675;1294;246346;-67
2022/12/24 10:52:10;;;;;;;26.00;15.30;;;;;;;5.70;89.12;99067.20;207631;1281;141009;-68
2022/12/24 10:57:27;;;;;;;21.50;15.00;;;;;;;5.74;89.02;99082.63;208492;1289;140807;-67
2022/12/24 11:02:32;;;;;;;22.50;15.70;;;;;;;5.76;88.96;99091.23;208002;1288;142227;-67
2022/12/24 11:07:36;;;;;;;24.50;15.00;;;;;;;5.76;88.65;99100.23;207551;1295;151820;-67
2022/12/24 11:12:47;;;;;;;22.30;12.90;;;;;;;5.70;88.84;99102.23;207925;1283;139521;-67
2022/12/24 11:18:14;;;;;;;22.20;13.40;;;;;;;5.66;89.05;99107.48;208822;1287;140564;-67
2022/12/24 11:23:19;;;;;;;21.80;14.20;;;;;;;5.62;88.57;99107.35;208839;1290;210362;-67
2022/12/24 11:28:27;;;;;;;21.00;15.00;;;;;;;5.59;89.15;99108.22;207869;1290;141019;-67
2022/12/24 11:33:46;;;;;;;18.00;11.80;;;;;;;5.61;89.14;99122.08;208629;1294;141001;-67
2022/12/24 11:38:54;;;;;;;20.10;14.00;;;;;;;5.61;88.94;99133.22;207530;1294;140621;-67
2022/12/24 11:44:02;;;;;;;26.00;14.60;;;;;;;5.56;89.02;99150.27;208122;1294;139875;-66
2022/12/24 11:49:26;;;;;;;23.40;13.70;;;;;;;5.54;89.19;99159.88;210393;1295;140118;-65
2022/12/24 11:54:50;;;;;;;20.90;13.30;;;;;;;5.59;88.92;99167.98;210205;1288;141684;-66
2022/12/24 11:59:54;;;;;;;23.90;12.70;;;;;;;5.60;88.85;99178.14;210409;1295;234706;-65
2022/12/24 12:05:06;;;;;;;24.10;14.50;;;;;;;5.56;89.17;99181.02;208458;1288;139220;-66
2022/12/24 12:10:35;;;;;;;23.20;12.70;;;;;;;5.50;88.55;99188.63;208902;1294;141252;-67
2022/12/24 12:15:50;;;;;;;26.30;13.90;;;;;;;5.50;89.03;99202.05;208628;1284;139930;-71
2022/12/24 12:21:05;;;;;;;18.30;12.60;;;;;;;5.50;89.24;99212.20;207718;1289;247463;-69
2022/12/24 12:26:17;;;;;;;18.40;11.30;;;;;;;5.51;89.12;99212.42;208536;1288;140280;-69
2022/12/24 12:31:25;;;;;;;21.60;13.20;;;;;;;5.47;88.94;99215.50;207346;1296;140607;-69
2022/12/24 12:36:35;;;;;;;21.80;12.60;;;;;;;5.44;88.53;99223.14;209557;1291;140546;-69
2022/12/24 12:41:57;;;;;;;21.10;11.30;;;;;;;5.41;88.87;99229.82;208786;1297;139435;-69
2022/12/24 12:47:19;;;;;;;18.20;11.20;;;;;;;5.44;88.88;99241.71;207493;1288;140149;-69
2022/12/24 12:53:00;;;;;;;18.20;11.50;;;;;;;5.52;89.17;99246.98;207947;1301;140438;-68
2022/12/24 12:58:15;;;;;;;14.30;10.20;;;;;;;5.51;89.06;99261.67;207037;1288;250988;-67
2022/12/24 13:03:42;;;;;;;20.20;12.20;;;;;;;5.50;89.26;99274.28;208192;1287;141473;-67
2022/12/24 13:08:52;;;;;;;18.20;12.40;;;;;;;5.56;89.19;99284.41;208359;1280;140239;-67
2022/12/24 13:14:14;;;;;;;18.00;12.10;;;;;;;5.64;89.26;99294.25;207137;1295;141957;-67
2022/12/24 13:19:21;;;;;;;19.10;10.80;;;;;;;5.63;89.04;99297.23;208737;1295;243673;-67
2022/12/24 13:24:29;;;;;;;18.00;10.60;;;;;;;5.56;88.87;99302.51;208310;1290;140227;-67
2022/12/24 13:29:34;;;;;;;19.50;12.00;;;;;;;5.54;88.71;99306.66;207235;1297;140998;-67
2022/12/24 13:35:10;;;;;;;20.50;13.50;;;;;;;5.53;88.59;99316.88;207364;1297;140511;-69
2022/12/24 13:40:26;;;;;;;22.30;12.00;;;;;;;5.52;88.96;99316.73;208485;1281;140617;-67
2022/12/24 13:45:37;;;;;;;22.60;11.90;;;;;;;5.50;88.92;99322.85;210362;1288;141633;-68
2022/12/24 13:50:52;;;;;;;24.00;14.30;;;;;;;5.50;88.87;99329.41;207813;1294;141296;-67
2022/12/24 13:56:17;;;;;;;25.20;12.60;;;;;;;5.47;88.81;99340.08;209090;1294;139979;-67
2022/12/24 14:01:36;;;;;;;18.80;11.60;;;;;;;5.45;89.20;99337.27;209623;1294;249240;-66
2022/12/24 14:06:41;;;;;;;25.80;14.90;;;;;;;5.50;88.77;99346.13;209464;1294;140690;-67
2022/12/24 14:11:55;;;;;;;22.90;14.20;;;;;;;5.50;88.69;99348.83;209224;1288;141334;-64
2022/12/24 14:17:21;;;;;;;23.00;13.20;;;;;;;5.48;88.59;99363.86;207978;1288;139817;-65
2022/12/24 14:22:46;;;;;;;20.70;13.10;;;;;;;5.46;88.68;99383.59;208443;1289;141083;-62
2022/12/24 14:27:58;;;;;;;16.10;12.10;;;;;;;5.52;88.76;99395.79;208475;1287;140879;-64
2022/12/24 14:33:02;;;;;;;24.20;13.60;;;;;;;5.60;89.13;99405.81;208061;1296;210136;-67
2022/12/24 14:38:20;;;;;;;22.80;12.80;;;;;;;5.63;88.89;99416.33;208705;1288;141347;-65
2022/12/24 14:43:48;;;;;;;21.00;14.00;;;;;;;5.63;88.79;99424.91;208649;1293;249218;-68
2022/12/24 14:49:30;;;;;;;21.40;12.30;;;;;;;5.65;88.48;99432.08;207480;1301;237528;-67
2022/12/24 14:54:35;;;;;;;21.60;13.90;;;;;;;5.71;88.81;99434.16;207938;1290;142425;-72
2022/12/24 14:59:49;;;;;;;24.50;16.10;;;;;;;5.70;88.76;99443.16;207844;1294;139703;-66
2022/12/24 15:05:06;;;;;;;25.60;16.50;;;;;;;5.66;88.87;99447.16;207789;1294;141495;-67
2022/12/24 15:10:44;;;;;;;25.00;15.10;;;;;;;5.67;88.64;99452.04;208247;1298;141383;-62
2022/12/24 15:15:50;;;;;;;22.60;14.30;;;;;;;5.69;89.26;99459.07;208861;1296;141427;-65
2022/12/24 15:21:01;;;;;;;25.00;15.30;;;;;;;5.67;88.73;99466.60;207257;1287;140328;-64
2022/12/24 15:26:30;;;;;;;26.30;15.80;;;;;;;5.64;88.81;99475.32;207987;1288;210923;-65
2022/12/24 15:31:35;;;;;;;;;;;;;;;5.60;88.70;99486.92;210267;1290;140563;-65
2022/12/24 15:36:38;;;;;;;28.30;17.00;;;;;;;5.60;89.16;99485.21;210031;1288;127461;-68
2022/12/24 15:47:20;;;;;;;21.50;15.50;;;;;;;5.60;88.57;99494.45;210149;1288;222042;-67
2022/12/24 15:52:25;;;;;;;22.20;13.00;;;;;;;5.63;88.49;99501.27;209141;1288;142350;-65
2022/12/24 15:57:32;;;;;;;23.10;14.50;;;;;;;5.67;88.92;99506.02;207868;1293;140295;-66
2022/12/24 16:02:45;;;;;;;22.90;13.60;;;;;;;5.70;88.68;99502.84;209742;1281;143305;-66
2022/12/24 16:08:12;;;;;;;21.40;14.60;;;;;;;5.72;88.57;99502.96;208120;1280;141397;-65
2022/12/24 16:13:58;;;;;;;22.50;14.60;;;;;;;5.70;88.67;99500.64;207524;1295;140887;-66
2022/12/24 16:19:16;;;;;;;26.30;15.80;;;;;;;5.67;88.76;99505.13;207582;1290;234664;-69
2022/12/24 16:24:30;;;;;;;24.50;14.80;;;;;;;5.65;88.43;99504.45;208445;1281;141135;-66
2022/12/24 16:29:36;;;;;;;31.60;16.20;;;;;;;5.63;88.39;99521.05;207367;1294;142109;-64
2022/12/24 16:34:44;;;;;;;22.50;14.50;;;;;;;5.63;88.71;99529.84;207685;1289;142911;-67
2022/12/24 16:39:54;;;;;;;25.50;15.30;;;;;;;5.65;88.62;99530.89;207751;1294;224475;-64
2022/12/24 16:45:00;;;;;;;30.00;15.20;;;;;;;5.65;88.86;99540.70;207312;1287;141929;-63
2022/12/24 16:50:16;;;;;;;22.20;14.50;;;;;;;5.66;88.57;99554.31;207630;1293;226726;-66
2022/12/24 16:55:23;;;;;;;25.80;14.70;;;;;;;5.66;88.52;99554.85;207437;1297;140932;-65
2022/12/24 17:00:35;;;;;;;23.20;13.30;;;;;;;5.69;88.67;99553.05;208553;1296;140363;-65
2022/12/24 17:05:44;;;;;;;24.90;15.70;;;;;;;5.71;88.35;99552.56;207508;1295;140877;-65
2022/12/24 17:10:52;;;;;;;22.70;12.60;;;;;;;5.71;88.78;99559.07;209798;1294;141823;-65
2022/12/24 17:16:02;;;;;;;20.70;13.40;;;;;;;5.73;88.60;99562.81;208641;1295;142258;-63
2022/12/24 17:21:12;;;;;;;24.30;13.90;;;;;;;5.76;88.44;99567.29;208919;1295;140874;-64
2022/12/24 17:26:20;;;;;;;27.10;16.30;;;;;;;5.73;88.32;99577.98;208113;1293;140337;-65
2022/12/24 17:31:27;;;;;;;25.00;14.30;;;;;;;5.73;88.39;99586.49;210083;1295;140695;-65
2022/12/24 17:36:36;;;;;;;32.00;17.30;;;;;;;5.76;89.09;99592.31;210159;1297;141526;-65
2022/12/24 17:41:47;;;;;;;33.20;18.40;;;;;;;5.81;88.22;99598.25;210194;1287;224171;-65
2022/12/24 17:46:54;;;;;;;32.40;17.30;;;;;;;5.83;88.18;99592.84;210146;1281;226829;-64
2022/12/24 17:52:03;;;;;;;31.70;15.70;;;;;;;5.84;87.96;99603.70;208099;1280;141713;-64
2022/12/24 17:57:09;;;;;;;31.70;18.30;;;;;;;5.82;87.84;99607.36;210050;1294;235137;-66
2022/12/24 18:02:15;;;;;;;32.40;17.00;;;;;;;5.81;88.06;99614.49;209440;1293;141111;-64
2022/12/24 18:07:24;;;;;;;27.50;15.00;;;;;;;5.82;87.63;99614.66;209696;1296;248524;-67
2022/12/24 18:12:31;;;;;;;33.30;17.60;;;;;;;5.83;87.58;99620.80;208036;1288;222648;-66
2022/12/24 18:17:41;;;;;;;31.90;17.40;;;;;;;5.82;87.87;99628.05;209124;1289;224645;-67
2022/12/24 18:22:51;;;;;;;30.30;15.30;;;;;;;5.80;88.03;99635.03;208189;1293;141312;-66
2022/12/24 18:27:59;;;;;;;28.30;15.80;;;;;;;5.77;87.87;99636.61;207249;1294;140284;-66
2022/12/24 18:33:14;;;;;;;32.80;18.10;;;;;;;5.79;88.40;99636.74;207659;1287;140175;-64
2022/12/24 18:38:26;;;;;;;30.20;16.60;;;;;;;5.81;88.36;99636.86;208330;1295;140747;-63
2022/12/24 18:43:40;;;;;;;28.50;13.50;;;;;;;5.82;87.92;99641.93;208382;1300;140973;-64
2022/12/24 18:48:50;;;;;;;34.20;17.40;;;;;;;5.81;87.92;99652.37;206624;1288;1636525;-65
2022/12/24 18:53:57;;;;;;;37.70;16.20;;;;;;;5.82;88.15;99650.91;207628;1297;141440;-64
2022/12/24 18:59:03;;;;;;;37.20;18.20;;;;;;;5.79;88.26;99668.14;208408;1303;141140;-64
2022/12/24 19:04:09;;;;;;;26.30;14.50;;;;;;;5.73;87.83;99677.88;208234;1293;140251;-64
2022/12/24 19:09:18;;;;;;;29.80;16.50;;;;;;;5.72;87.79;99680.48;208508;1297;142106;-64
2022/12/24 19:14:25;;;;;;;29.70;16.60;;;;;;;5.69;87.70;99675.73;207752;1289;219055;-64
2022/12/24 19:19:31;;;;;;;23.40;13.70;;;;;;;5.63;87.74;99677.80;208567;1296;141978;-65
2022/12/24 19:24:36;;;;;;;26.90;14.10;;;;;;;5.59;87.96;99673.36;209247;1294;141249;-66
2022/12/24 19:29:40;;;;;;;30.30;16.60;;;;;;;5.60;88.30;99677.14;208376;1290;155988;-65
2022/12/24 19:34:44;;;;;;;31.70;16.40;;;;;;;5.57;88.06;99677.30;210213;1300;140355;-66
2022/12/24 19:39:49;;;;;;;29.70;15.80;;;;;;;5.57;87.78;99687.06;208609;1293;139721;-66
2022/12/24 19:44:54;;;;;;;29.10;16.20;;;;;;;5.56;87.70;99694.30;208414;1293;141440;-66
2022/12/24 19:50:00;;;;;;;27.20;16.30;;;;;;;5.52;87.77;99699.34;209722;1300;140956;-66
2022/12/24 19:55:05;;;;;;;31.90;16.30;;;;;;;5.52;87.77;99715.98;207760;1304;140069;-66
2022/12/24 20:00:11;;;;;;;31.00;14.50;;;;;;;5.55;88.36;99734.24;208676;1299;140440;-65
2022/12/24 20:05:16;;;;;;;37.90;16.40;;;;;;;5.57;88.01;99745.27;208296;1300;141264;-65
2022/12/24 20:10:21;;;;;;;32.60;17.10;;;;;;;5.60;88.15;99757.52;209910;1295;141121;-65
2022/12/24 20:15:25;;;;;;;35.50;17.30;;;;;;;5.60;88.04;99764.25;207519;1298;140304;-66
2022/12/24 20:20:28;;;;;;;27.30;14.80;;;;;;;5.57;87.68;99772.94;207417;1298;141289;-64
2022/12/24 20:25:36;;;;;;;31.50;16.00;;;;;;;5.52;88.06;99772.15;208019;1299;141859;-64
2022/12/24 20:30:42;;;;;;;33.90;18.80;;;;;;;5.50;87.81;99768.55;208345;1293;140896;-64
2022/12/24 20:35:49;;;;;;;37.10;16.70;;;;;;;5.46;87.95;99766.96;207707;1295;139974;-64
2022/12/24 20:40:56;;;;;;;35.70;16.80;;;;;;;5.45;88.05;99767.52;208548;1293;140720;-65
2022/12/24 20:46:05;;;;;;;36.40;17.60;;;;;;;5.50;88.57;99767.53;208381;1293;224330;-65
2022/12/24 20:51:13;;;;;;;39.90;20.40;;;;;;;5.50;88.37;99770.34;208951;1295;140498;-64
2022/12/24 20:56:29;;;;;;;40.00;20.40;;;;;;;5.47;87.87;99774.93;208117;1297;141429;-66
2022/12/24 21:01:33;;;;;;;32.80;19.40;;;;;;;5.46;88.28;99778.07;207405;1293;141386;-68
2022/12/24 21:06:39;;;;;;;35.50;18.70;;;;;;;5.49;88.44;99776.33;208251;1293;141242;-64
2022/12/24 21:16:53;;;;;;;45.40;20.40;;;;;;;5.50;88.35;99788.31;208508;1293;141562;-66
2022/12/24 21:21:59;;;;;;;38.00;19.30;;;;;;;5.49;88.07;99798.81;208439;1293;143008;-66
2022/12/24 21:27:04;;;;;;;45.10;21.00;;;;;;;5.42;87.58;99801.52;210160;1294;141095;-65
2022/12/24 21:32:08;;;;;;;38.70;20.30;;;;;;;5.32;88.00;99806.16;210346;1301;140285;-64
2022/12/24 21:37:12;;;;;;;39.20;18.70;;;;;;;5.37;88.27;99802.96;210144;1301;140312;-67
2022/12/24 21:42:16;;;;;;;41.10;21.10;;;;;;;5.47;88.07;99798.61;210274;1284;140728;-66
2022/12/24 21:47:21;;;;;;;35.90;19.30;;;;;;;5.54;88.58;99800.44;209134;1288;142553;-66
2022/12/24 21:52:26;;;;;;;32.90;20.80;;;;;;;5.57;88.28;99804.31;208207;1297;140019;-67
2022/12/24 22:02:57;;;;;;;42.40;20.20;;;;;;;5.58;87.93;99803.09;207871;1301;140629;-64
2022/12/24 22:13:24;;;;;;;46.60;21.40;;;;;;;5.51;88.24;99807.02;208728;1291;139850;-63
2022/12/24 22:18:28;;;;;;;59.70;23.70;;;;;;;5.48;88.02;99799.54;208403;1288;140420;-64
2022/12/24 22:23:33;;;;;;;48.40;23.20;;;;;;;5.50;88.45;99796.65;207392;1287;141072;-65
2022/12/24 22:28:45;;;;;;;46.00;20.40;;;;;;;5.46;88.18;99793.11;207698;1294;140611;-63
2022/12/24 22:33:50;;;;;;;37.70;17.40;;;;;;;5.36;87.75;99790.07;208656;1279;140033;-64
2022/12/24 22:38:54;;;;;;;45.00;20.90;;;;;;;5.28;87.97;99794.14;207717;1298;141342;-65
2022/12/24 22:44:01;;;;;;;43.60;19.90;;;;;;;5.30;88.36;99799.15;207699;1296;250492;-66
2022/12/24 22:49:06;;;;;;;40.20;22.30;;;;;;;5.31;88.27;99807.29;207520;1288;141627;-66
2022/12/24 22:54:10;;;;;;;34.30;16.20;;;;;;;5.32;88.41;99817.02;208412;1297;142376;-65
2022/12/24 22:59:15;;;;;;;30.80;16.70;;;;;;;5.33;88.40;99824.38;208684;1294;140532;-66
2022/12/24 23:04:20;;;;;;;35.70;17.00;;;;;;;5.27;88.33;99824.10;208765;1300;139955;-67
2022/12/24 23:09:25;;;;;;;41.40;21.90;;;;;;;5.25;88.70;99831.21;208318;1293;141030;-65
2022/12/24 23:19:55;;;;;;;44.70;23.80;;;;;;;5.40;88.94;99848.77;208631;1297;140810;-62
2022/12/24 23:24:59;;;;;;;47.30;24.50;;;;;;;5.41;88.85;99862.77;207522;1295;140637;-65
2022/12/24 23:30:03;;;;;;;67.80;26.10;;;;;;;5.38;88.91;99871.05;208947;1296;139499;-62
2022/12/24 23:35:08;;;;;;;52.30;25.10;;;;;;;5.38;88.62;99863.20;210164;1296;141198;-62
2022/12/24 23:40:12;;;;;;;55.50;27.10;;;;;;;5.40;89.10;99866.75;210170;1288;140252;-63
2022/12/24 23:45:15;;;;;;;55.50;27.00;;;;;;;5.47;88.95;99879.27;209287;1288;140292;-63
2022/12/24 23:50:20;;;;;;;50.20;23.70;;;;;;;5.52;89.05;99878.65;209140;1280;142364;-63
2022/12/24 23:55:24;;;;;;;64.20;26.40;;;;;;;5.58;89.12;99883.35;209992;1290;140684;-66
